createdAt,value
2019-03-01T18:42:13.219Z,228.87
2019-03-01T18:45:38.561Z,239.00
2019-03-01T18:48:09.906Z,227.05
2019-03-01T18:50:38.936Z,214.03
2019-03-01T18:53:07.210Z,206.47
2019-03-01T18:55:35.567Z,208.40
2019-03-01T18:58:03.813Z,210.32
2019-03-01T19:00:35.851Z,226.02
2019-03-01T19:03:04.441Z,215.87
2019-03-01T19:05:36.736Z,209.80
2019-03-01T19:08:04.868Z,285.15
2019-03-01T19:10:33.779Z,210.15
2019-03-01T19:13:02.424Z,224.30
2019-03-01T19:15:30.770Z,219.37
2019-03-01T19:17:59.088Z,229.87
2019-03-01T19:20:28.578Z,216.57
2019-03-01T19:22:58.002Z,210.10
2019-03-01T19:25:26.563Z,238.68
2019-03-01T19:27:55.049Z,251.47
2019-03-01T19:30:24.100Z,238.18
2019-03-01T19:32:52.675Z,232.05
2019-03-01T19:35:21.065Z,225.40
2019-03-01T19:37:49.653Z,227.82
2019-03-01T19:40:21.176Z,245.42
2019-03-01T19:42:49.543Z,222.15
2019-03-01T19:45:18.188Z,236.37
2019-03-01T19:47:46.563Z,242.95
2019-03-01T19:50:16.258Z,238.68
2019-03-01T19:52:47.104Z,246.50
2019-03-01T19:55:16.864Z,232.95
2019-03-01T19:57:45.152Z,240.10
2019-03-01T20:00:18.132Z,235.43
2019-03-01T20:02:46.390Z,229.73
2019-03-01T20:05:18.841Z,254.03
2019-03-01T20:07:47.240Z,233.27
2019-03-01T20:10:16.499Z,247.20
2019-03-01T20:12:44.782Z,256.20
2019-03-01T20:15:14.748Z,251.37
2019-03-01T20:17:44.582Z,242.87
2019-03-01T20:20:14.602Z,246.30
2019-03-01T20:22:42.998Z,257.97
2019-03-01T20:25:12.764Z,244.77
2019-03-01T20:27:43.866Z,286.30
2019-03-01T20:30:18.026Z,285.07
2019-03-01T20:32:47.411Z,280.73
2019-03-01T20:35:16.661Z,296.37
2019-03-01T20:37:45.488Z,323.57
2019-03-01T20:40:16.251Z,401.03
2019-03-01T20:42:44.575Z,381.23
2019-03-01T20:45:14.969Z,341.75
2019-03-01T20:47:44.840Z,326.03
2019-03-01T20:50:15.609Z,302.23
2019-03-01T20:52:45.933Z,301.73
2019-03-01T20:55:14.693Z,319.20
2019-03-01T20:57:43.042Z,305.73
2019-03-01T21:00:18.999Z,272.17
2019-03-01T21:02:50.211Z,289.53
2019-03-01T21:05:17.225Z,250.00
2019-03-01T21:07:48.277Z,257.83
2019-03-01T21:10:17.236Z,262.07
2019-03-01T21:12:45.771Z,261.83
2019-03-01T21:15:14.967Z,275.97
2019-03-01T21:17:43.681Z,273.37
2019-03-01T21:20:15.927Z,246.53
2019-03-01T21:22:42.924Z,257.00
2019-03-01T21:25:12.882Z,231.13
2019-03-01T21:27:41.540Z,219.97
2019-03-01T21:30:16.529Z,216.33
2019-03-01T21:32:47.047Z,227.37
2019-03-01T21:35:16.809Z,234.40
2019-03-01T21:37:45.253Z,210.03
2019-03-01T21:40:14.181Z,232.10
2019-03-01T21:42:42.816Z,232.60
2019-03-01T21:45:17.792Z,224.80
2019-03-01T21:47:48.101Z,244.67
2019-03-01T21:50:15.203Z,232.40
2019-03-01T21:52:43.760Z,229.30
2019-03-01T21:55:24.903Z,212.10
2019-03-01T21:57:54.914Z,199.60
2019-03-01T22:00:25.486Z,220.53
2019-03-01T22:02:54.340Z,214.07
2019-03-01T22:05:22.935Z,195.37
2019-03-01T22:07:51.590Z,211.20
2019-03-01T22:10:20.107Z,205.83
2019-03-01T22:12:48.506Z,176.33
2019-03-01T22:15:21.648Z,178.07
2019-03-01T22:17:48.679Z,168.27
2019-03-01T22:20:17.964Z,153.70
2019-03-01T22:22:46.517Z,155.30
2019-03-01T22:25:15.562Z,149.33
2019-03-01T22:27:44.281Z,143.37
2019-03-01T22:30:33.127Z,134.50
2019-03-01T22:33:01.762Z,134.90
2019-03-01T22:35:30.412Z,148.87
2019-03-01T22:38:00.999Z,142.00
2019-03-01T22:40:29.497Z,140.93
2019-03-01T22:42:57.988Z,138.83
2019-03-01T22:45:26.329Z,141.77
2019-03-01T22:47:54.869Z,140.03
2019-03-01T22:50:23.466Z,139.20
2019-03-01T22:52:53.100Z,135.03
2019-03-01T22:55:21.810Z,144.57
2019-03-01T22:57:50.383Z,134.80
2019-03-01T23:00:27.633Z,158.37
2019-03-01T23:02:56.284Z,138.03
2019-03-01T23:05:24.573Z,139.70
2019-03-01T23:07:53.231Z,135.73
2019-03-01T23:10:22.397Z,143.67
2019-03-01T23:12:51.122Z,127.00
2019-03-01T23:15:19.751Z,137.03
2019-03-01T23:17:48.002Z,138.80
2019-03-01T23:20:16.413Z,140.00
2019-03-01T23:22:46.068Z,133.53
2019-03-01T23:25:14.816Z,130.50
2019-03-01T23:27:43.318Z,131.20
2019-03-01T23:30:12.292Z,136.77
2019-03-01T23:32:40.793Z,142.67
2019-03-01T23:35:08.988Z,139.10
2019-03-01T23:37:38.820Z,131.87
2019-03-01T23:40:07.607Z,137.93
2019-03-01T23:42:36.190Z,148.53
2019-03-01T23:45:08.877Z,133.83
2019-03-01T23:47:38.359Z,128.47
2019-03-01T23:50:10.314Z,132.40
2019-03-01T23:52:38.701Z,129.68
2019-03-01T23:55:07.879Z,134.93
2019-03-01T23:57:38.060Z,126.40
